createdAt,value
2023-01-07T00:02:56.386Z,93.04
2023-01-07T00:07:13.988Z,93.18
2023-01-07T00:11:36.829Z,93.20
2023-01-07T00:16:08.513Z,93.17
2023-01-07T00:20:25.961Z,93.18
2023-01-07T00:24:43.494Z,93.21
2023-01-07T00:29:01.445Z,93.13
2023-01-07T00:33:20.164Z,92.95
2023-01-07T00:37:51.486Z,92.71
2023-01-07T00:42:28.085Z,93.04
2023-01-07T00:46:45.771Z,93.17
2023-01-07T00:51:03.340Z,93.29
2023-01-07T00:55:22.146Z,93.28
2023-01-07T00:59:39.812Z,93.29
2023-01-07T01:03:57.454Z,93.29
2023-01-07T01:08:15.159Z,93.44
2023-01-07T01:12:32.558Z,93.63
2023-01-07T01:16:50.383Z,93.62
2023-01-07T01:21:11.401Z,93.62
2023-01-07T01:25:28.539Z,93.70
2023-01-07T01:29:46.669Z,93.81
2023-01-07T01:34:04.366Z,93.78
2023-01-07T01:38:22.173Z,93.80
2023-01-07T01:42:39.328Z,93.78
2023-01-07T01:46:57.091Z,93.77
2023-01-07T01:51:17.553Z,93.83
2023-01-07T01:55:42.961Z,93.70
2023-01-07T02:00:00.919Z,93.53
2023-01-07T02:04:22.410Z,93.54
2023-01-07T02:08:39.856Z,93.64
2023-01-07T02:13:17.530Z,93.71
2023-01-07T02:17:51.443Z,93.77
2023-01-07T02:22:50.950Z,93.65
2023-01-07T02:27:20.889Z,93.56
2023-01-07T02:31:50.475Z,93.52
2023-01-07T02:36:51.770Z,93.49
2023-01-07T02:41:56.208Z,93.72
2023-01-07T02:46:57.816Z,93.77
2023-01-07T02:51:15.311Z,93.63
2023-01-07T02:56:05.912Z,93.62
2023-01-07T03:00:40.307Z,93.72
2023-01-07T03:05:13.469Z,93.89
2023-01-07T03:09:58.255Z,94.02
2023-01-07T03:14:34.913Z,94.06
2023-01-07T03:19:12.398Z,94.08
2023-01-07T03:23:31.380Z,94.24
2023-01-07T03:27:52.580Z,94.29
2023-01-07T03:32:24.628Z,94.28
2023-01-07T03:36:49.253Z,94.30
2023-01-07T03:41:06.462Z,94.34
2023-01-07T03:45:26.638Z,94.40
2023-01-07T03:49:44.081Z,94.40
2023-01-07T03:54:01.557Z,94.43
2023-01-07T03:58:19.282Z,94.44
2023-01-07T04:02:37.203Z,94.50
2023-01-07T04:06:54.433Z,94.58
2023-01-07T04:11:12.182Z,94.64
2023-01-07T04:15:29.652Z,94.68
2023-01-07T04:19:47.950Z,94.70
2023-01-07T04:24:05.800Z,94.74
2023-01-07T04:28:23.528Z,94.80
2023-01-07T04:32:41.159Z,94.84
2023-01-07T04:36:58.754Z,94.90
2023-01-07T04:41:16.401Z,94.89
2023-01-07T04:45:34.090Z,94.90
2023-01-07T04:49:51.814Z,94.92
2023-01-07T04:54:09.341Z,94.94
2023-01-07T04:58:26.581Z,94.94
2023-01-07T05:02:44.040Z,94.90
2023-01-07T05:07:02.442Z,94.99
2023-01-07T05:11:23.018Z,94.97
2023-01-07T05:15:40.787Z,94.97
2023-01-07T05:19:58.491Z,94.96
2023-01-07T05:24:16.321Z,94.95
2023-01-07T05:28:33.845Z,94.95
2023-01-07T05:32:51.551Z,94.92
2023-01-07T05:37:09.156Z,94.95
2023-01-07T05:41:26.915Z,94.94
2023-01-07T05:45:46.313Z,94.96
2023-01-07T05:50:04.448Z,94.90
2023-01-07T05:54:22.154Z,94.91
2023-01-07T05:58:39.634Z,94.90
2023-01-07T06:02:57.313Z,94.87
2023-01-07T06:07:14.938Z,94.91
2023-01-07T06:11:32.643Z,94.92
2023-01-07T06:15:50.539Z,94.91
2023-01-07T06:20:09.568Z,94.88
2023-01-07T06:24:27.078Z,94.90
2023-01-07T06:28:44.623Z,94.86
2023-01-07T06:33:02.315Z,94.85
2023-01-07T06:37:19.642Z,94.85
2023-01-07T06:41:37.127Z,94.85
2023-01-07T06:45:55.223Z,94.86
2023-01-07T06:50:12.980Z,94.84
2023-01-07T06:54:30.503Z,94.86
2023-01-07T06:58:48.137Z,94.84
2023-01-07T07:03:05.943Z,94.86
2023-01-07T07:07:23.399Z,94.85
2023-01-07T07:11:41.078Z,94.86
2023-01-07T07:15:58.607Z,94.88
2023-01-07T07:20:17.984Z,94.86
2023-01-07T07:24:35.709Z,94.85
2023-01-07T07:28:53.446Z,94.81
2023-01-07T07:33:12.679Z,94.77
2023-01-07T07:37:30.389Z,94.75
2023-01-07T07:41:47.842Z,94.76
2023-01-07T07:46:05.975Z,94.69
2023-01-07T07:50:23.529Z,94.65
2023-01-07T07:54:41.151Z,94.59
2023-01-07T07:58:58.649Z,94.58
2023-01-07T08:03:16.992Z,94.49
2023-01-07T08:07:35.736Z,94.47
2023-01-07T08:11:55.245Z,94.51
2023-01-07T08:16:12.800Z,94.48
2023-01-07T08:20:33.488Z,94.39
2023-01-07T08:24:50.945Z,94.34
2023-01-07T08:29:09.155Z,94.24
2023-01-07T08:33:26.911Z,94.03
2023-01-07T08:37:44.601Z,93.98
2023-01-07T08:42:02.350Z,93.82
2023-01-07T08:46:20.168Z,93.79
2023-01-07T08:50:37.731Z,93.23
2023-01-07T08:54:55.268Z,93.09
2023-01-07T08:59:13.081Z,93.25
2023-01-07T09:03:30.632Z,93.66
2023-01-07T09:07:53.566Z,93.37
2023-01-07T09:12:11.359Z,91.79
2023-01-07T09:16:29.242Z,91.41
2023-01-07T09:20:46.873Z,91.94
2023-01-07T09:25:06.149Z,91.12
2023-01-07T09:29:23.669Z,91.86
2023-01-07T09:33:41.536Z,90.00
2023-01-07T09:37:59.111Z,90.47
2023-01-07T09:42:33.798Z,91.37
2023-01-07T09:46:53.607Z,90.55
2023-01-07T09:51:39.055Z,91.45
2023-01-07T09:56:11.176Z,87.85
2023-01-07T10:00:34.547Z,88.66
2023-01-07T10:05:39.339Z,86.66
2023-01-07T10:10:29.285Z,87.49
2023-01-07T10:15:16.292Z,86.27
2023-01-07T10:20:05.074Z,89.21
2023-01-07T10:24:32.544Z,87.11
2023-01-07T10:29:05.345Z,89.67
2023-01-07T10:33:31.158Z,86.45
2023-01-07T10:37:49.001Z,87.95
2023-01-07T10:42:28.422Z,88.85
2023-01-07T10:47:08.913Z,87.19
2023-01-07T10:52:19.194Z,88.06
2023-01-07T10:56:43.304Z,87.88
2023-01-07T11:01:00.850Z,87.81
2023-01-07T11:05:21.427Z,87.47
2023-01-07T11:09:44.008Z,87.77
2023-01-07T11:14:12.678Z,87.18
2023-01-07T11:18:39.527Z,86.26
2023-01-07T11:23:44.013Z,87.54
2023-01-07T11:34:01.350Z,83.98
2023-01-07T11:38:47.304Z,84.27
2023-01-07T11:43:22.756Z,79.44
2023-01-07T11:47:48.801Z,71.69
2023-01-07T11:52:06.166Z,72.36
2023-01-07T11:56:29.023Z,79.49
2023-01-07T12:00:46.805Z,79.98
2023-01-07T12:05:26.512Z,69.56
2023-01-07T12:09:46.133Z,66.23
2023-01-07T12:14:19.007Z,75.48
2023-01-07T12:18:55.746Z,77.94
2023-01-07T12:23:30.823Z,80.63
2023-01-07T12:28:13.272Z,79.05
2023-01-07T12:32:53.288Z,78.99
2023-01-07T12:37:57.695Z,75.69
2023-01-07T12:42:24.790Z,74.68
2023-01-07T12:47:31.154Z,70.90
2023-01-07T12:52:27.609Z,58.14
2023-01-07T12:56:55.651Z,57.15
2023-01-07T13:01:42.311Z,66.73
2023-01-07T13:06:22.168Z,67.06
2023-01-07T13:10:49.493Z,69.23
2023-01-07T13:15:29.952Z,72.03
2023-01-07T13:19:47.742Z,72.07
2023-01-07T13:24:56.389Z,72.75
2023-01-07T13:29:25.230Z,74.04
2023-01-07T13:34:10.652Z,73.59
2023-01-07T13:38:40.205Z,74.31
2023-01-07T13:43:04.421Z,75.77
2023-01-07T13:47:26.513Z,76.16
2023-01-07T13:51:43.722Z,77.16
2023-01-07T13:56:19.916Z,78.06
2023-01-07T14:01:35.688Z,78.19
2023-01-07T14:06:21.485Z,77.48
2023-01-07T14:10:39.645Z,78.26
2023-01-07T14:15:36.593Z,80.92
2023-01-07T14:20:14.769Z,82.72
2023-01-07T14:24:57.418Z,84.35
2023-01-07T14:29:48.797Z,85.18
2023-01-07T14:34:17.446Z,86.03
2023-01-07T14:38:35.934Z,86.59
2023-01-07T14:42:54.390Z,87.37
2023-01-07T14:47:12.415Z,88.32
2023-01-07T14:51:46.376Z,89.15
2023-01-07T14:56:37.955Z,89.83
2023-01-07T15:01:29.885Z,90.15
2023-01-07T15:06:21.257Z,90.20
2023-01-07T15:10:59.218Z,90.50
2023-01-07T15:15:53.372Z,90.93
2023-01-07T15:20:12.600Z,91.18
2023-01-07T15:25:17.880Z,91.69
2023-01-07T15:30:32.743Z,91.83
2023-01-07T15:34:50.301Z,92.01
2023-01-07T15:39:34.034Z,92.22
2023-01-07T15:43:52.472Z,92.21
2023-01-07T15:48:13.290Z,92.40
2023-01-07T15:52:30.882Z,92.55
2023-01-07T15:56:50.159Z,92.66
2023-01-07T16:01:25.255Z,92.83
2023-01-07T16:05:43.784Z,92.90
2023-01-07T16:10:01.785Z,92.99
2023-01-07T16:14:25.052Z,93.04
2023-01-07T16:18:57.941Z,93.11
2023-01-07T16:23:23.014Z,93.22
2023-01-07T16:27:40.534Z,93.20
2023-01-07T16:31:59.647Z,93.28
2023-01-07T16:36:28.638Z,93.33
2023-01-07T16:40:48.300Z,93.36
2023-01-07T16:45:27.048Z,93.39
2023-01-07T16:49:46.044Z,93.47
2023-01-07T16:54:23.048Z,93.55
2023-01-07T16:58:48.773Z,93.61
2023-01-07T17:03:06.670Z,93.60
2023-01-07T17:07:26.538Z,93.69
2023-01-07T17:11:44.053Z,93.75
2023-01-07T17:16:27.982Z,93.77
2023-01-07T17:20:50.210Z,93.78
2023-01-07T17:25:20.098Z,93.79
2023-01-07T17:29:39.657Z,93.83
2023-01-07T17:33:56.741Z,93.89
2023-01-07T17:38:16.530Z,93.90
2023-01-07T17:42:53.933Z,94.05
2023-01-07T17:47:12.166Z,94.01
2023-01-07T17:51:30.200Z,94.07
2023-01-07T17:55:48.033Z,94.08
2023-01-07T18:00:06.682Z,94.12
2023-01-07T18:04:24.486Z,94.15
2023-01-07T18:08:42.167Z,94.19
2023-01-07T18:12:59.859Z,94.20
2023-01-07T18:17:17.435Z,94.26
2023-01-07T18:21:34.754Z,94.22
2023-01-07T18:25:52.561Z,94.27
2023-01-07T18:30:17.781Z,94.29
2023-01-07T18:34:35.511Z,94.29
2023-01-07T18:38:53.588Z,94.32
2023-01-07T18:43:18.495Z,94.43
2023-01-07T18:47:36.428Z,94.40
2023-01-07T18:51:53.967Z,94.43
2023-01-07T18:56:13.499Z,94.48
2023-01-07T19:00:31.187Z,94.47
2023-01-07T19:04:49.876Z,94.48
2023-01-07T19:09:07.696Z,94.47
2023-01-07T19:13:25.412Z,94.53
2023-01-07T19:17:42.958Z,94.50
2023-01-07T19:22:01.511Z,94.48
2023-01-07T19:26:19.387Z,94.51
2023-01-07T19:30:37.096Z,94.51
2023-01-07T19:34:54.907Z,94.53
2023-01-07T19:39:15.494Z,94.50
2023-01-07T19:43:33.326Z,94.52
2023-01-07T19:47:51.332Z,94.51
2023-01-07T19:52:09.159Z,94.52
2023-01-07T19:56:27.380Z,94.51
2023-01-07T20:00:45.295Z,94.54
2023-01-07T20:05:02.817Z,94.50
2023-01-07T20:09:20.951Z,94.54
2023-01-07T20:13:40.260Z,94.51
2023-01-07T20:17:58.218Z,94.56
2023-01-07T20:22:15.909Z,94.59
2023-01-07T20:26:35.583Z,94.55
2023-01-07T20:30:53.178Z,94.57
2023-01-07T20:35:10.993Z,94.56
2023-01-07T20:39:29.029Z,94.60
2023-01-07T20:44:01.193Z,94.57
2023-01-07T20:48:19.515Z,94.57
2023-01-07T20:52:37.171Z,94.58
2023-01-07T20:56:55.118Z,94.59
2023-01-07T21:01:16.483Z,94.61
2023-01-07T21:05:38.067Z,94.58
2023-01-07T21:09:55.847Z,94.58
2023-01-07T21:14:13.487Z,94.61
2023-01-07T21:18:32.532Z,94.60
2023-01-07T21:22:50.286Z,94.61
2023-01-07T21:27:07.918Z,94.57
2023-01-07T21:31:27.115Z,94.60
2023-01-07T21:35:44.822Z,94.61
2023-01-07T21:40:02.702Z,94.57
2023-01-07T21:44:20.385Z,94.57
2023-01-07T21:48:41.084Z,94.60
2023-01-07T21:52:58.911Z,94.61
2023-01-07T21:57:16.634Z,94.60
2023-01-07T22:01:35.158Z,94.61
2023-01-07T22:06:00.331Z,94.60
2023-01-07T22:10:17.691Z,94.63
2023-01-07T22:14:35.161Z,94.62
2023-01-07T22:18:53.297Z,94.65
2023-01-07T22:23:19.519Z,94.61
2023-01-07T22:27:37.156Z,94.61
2023-01-07T22:31:54.878Z,94.66
2023-01-07T22:36:17.506Z,94.63
2023-01-07T22:40:37.463Z,94.64
2023-01-07T22:45:04.387Z,94.64
2023-01-07T22:49:26.969Z,94.67
2023-01-07T22:53:50.427Z,94.66
2023-01-07T22:58:08.291Z,94.64
2023-01-07T23:02:26.063Z,94.65
2023-01-07T23:06:43.698Z,94.63
2023-01-07T23:11:01.359Z,94.63
2023-01-07T23:15:18.528Z,94.65
2023-01-07T23:19:36.242Z,94.58
2023-01-07T23:23:54.001Z,94.62
2023-01-07T23:28:11.474Z,94.59
2023-01-07T23:32:28.983Z,94.54
2023-01-07T23:36:46.692Z,94.45
2023-01-07T23:41:08.035Z,94.38
2023-01-07T23:45:25.354Z,94.31
2023-01-07T23:49:42.850Z,94.17
2023-01-07T23:54:00.804Z,94.12
2023-01-07T23:58:19.129Z,94.02
